sensor_id;sensor_type;location;lat;lon;timestamp;P1;durP1;ratioP1;P2;durP2;ratioP2
10387;SDS011;5240;51.128;4.566;2023-01-08T00:00:09;7.78;;;3.22;;
10387;SDS011;5240;51.128;4.566;2023-01-08T00:02:38;5.30;;;2.92;;
10387;SDS011;5240;51.128;4.566;2023-01-08T00:05:06;6.28;;;3.13;;
10387;SDS011;5240;51.128;4.566;2023-01-08T00:07:36;5.90;;;3.17;;
10387;SDS011;5240;51.128;4.566;2023-01-08T00:10:03;5.63;;;3.25;;
10387;SDS011;5240;51.128;4.566;2023-01-08T00:12:30;8.00;;;3.10;;
10387;SDS011;5240;51.128;4.566;2023-01-08T00:14:58;9.73;;;3.25;;
10387;SDS011;5240;51.128;4.566;2023-01-08T00:17:25;7.03;;;3.00;;
10387;SDS011;5240;51.128;4.566;2023-01-08T00:19:54;6.35;;;3.55;;
10387;SDS011;5240;51.128;4.566;2023-01-08T00:22:21;9.63;;;3.58;;
10387;SDS011;5240;51.128;4.566;2023-01-08T00:24:48;8.27;;;3.30;;
10387;SDS011;5240;51.128;4.566;2023-01-08T00:27:15;7.45;;;3.40;;
10387;SDS011;5240;51.128;4.566;2023-01-08T00:29:42;5.25;;;3.08;;
10387;SDS011;5240;51.128;4.566;2023-01-08T00:32:09;6.25;;;2.50;;
10387;SDS011;5240;51.128;4.566;2023-01-08T00:34:36;5.00;;;2.92;;
10387;SDS011;5240;51.128;4.566;2023-01-08T00:37:05;4.85;;;2.00;;
10387;SDS011;5240;51.128;4.566;2023-01-08T00:39:32;2.75;;;1.52;;
10387;SDS011;5240;51.128;4.566;2023-01-08T00:41:59;4.28;;;1.55;;
10387;SDS011;5240;51.128;4.566;2023-01-08T00:44:26;3.55;;;1.50;;
10387;SDS011;5240;51.128;4.566;2023-01-08T00:46:53;5.22;;;1.60;;
10387;SDS011;5240;51.128;4.566;2023-01-08T00:49:20;3.70;;;1.40;;
10387;SDS011;5240;51.128;4.566;2023-01-08T00:51:47;2.63;;;1.50;;
10387;SDS011;5240;51.128;4.566;2023-01-08T00:54:15;6.80;;;1.50;;
10387;SDS011;5240;51.128;4.566;2023-01-08T00:56:42;3.92;;;1.17;;
10387;SDS011;5240;51.128;4.566;2023-01-08T00:59:09;5.13;;;1.58;;
10387;SDS011;5240;51.128;4.566;2023-01-08T01:01:36;2.50;;;1.02;;
10387;SDS011;5240;51.128;4.566;2023-01-08T01:04:03;2.10;;;1.17;;
10387;SDS011;5240;51.128;4.566;2023-01-08T01:06:30;3.38;;;1.40;;
10387;SDS011;5240;51.128;4.566;2023-01-08T01:08:57;2.83;;;1.10;;
10387;SDS011;5240;51.128;4.566;2023-01-08T01:11:26;3.15;;;1.20;;
10387;SDS011;5240;51.128;4.566;2023-01-08T01:13:54;2.63;;;1.40;;
10387;SDS011;5240;51.128;4.566;2023-01-08T01:16:22;2.15;;;1.00;;
10387;SDS011;5240;51.128;4.566;2023-01-08T01:18:49;7.30;;;1.20;;
10387;SDS011;5240;51.128;4.566;2023-01-08T01:21:19;4.90;;;1.20;;
10387;SDS011;5240;51.128;4.566;2023-01-08T01:23:48;2.42;;;1.25;;
10387;SDS011;5240;51.128;4.566;2023-01-08T01:26:15;6.55;;;1.55;;
10387;SDS011;5240;51.128;4.566;2023-01-08T01:28:47;7.55;;;1.48;;
10387;SDS011;5240;51.128;4.566;2023-01-08T01:31:15;3.60;;;1.15;;
10387;SDS011;5240;51.128;4.566;2023-01-08T01:33:43;4.80;;;1.30;;
10387;SDS011;5240;51.128;4.566;2023-01-08T01:36:11;2.92;;;1.17;;
10387;SDS011;5240;51.128;4.566;2023-01-08T01:38:41;3.38;;;1.33;;
10387;SDS011;5240;51.128;4.566;2023-01-08T01:41:08;5.65;;;1.67;;
10387;SDS011;5240;51.128;4.566;2023-01-08T01:43:43;5.10;;;1.42;;
10387;SDS011;5240;51.128;4.566;2023-01-08T01:46:17;3.53;;;1.38;;
10387;SDS011;5240;51.128;4.566;2023-01-08T01:48:49;4.82;;;1.65;;
10387;SDS011;5240;51.128;4.566;2023-01-08T01:51:18;5.65;;;1.30;;
10387;SDS011;5240;51.128;4.566;2023-01-08T01:53:46;4.15;;;1.35;;
10387;SDS011;5240;51.128;4.566;2023-01-08T01:56:14;5.35;;;1.30;;
10387;SDS011;5240;51.128;4.566;2023-01-08T01:58:41;7.03;;;1.98;;
10387;SDS011;5240;51.128;4.566;2023-01-08T02:01:08;5.50;;;1.67;;
10387;SDS011;5240;51.128;4.566;2023-01-08T02:03:38;3.75;;;1.40;;
10387;SDS011;5240;51.128;4.566;2023-01-08T02:06:08;6.63;;;1.63;;
10387;SDS011;5240;51.128;4.566;2023-01-08T02:08:43;2.75;;;1.38;;
10387;SDS011;5240;51.128;4.566;2023-01-08T02:11:21;4.50;;;1.58;;
10387;SDS011;5240;51.128;4.566;2023-01-08T02:13:56;7.15;;;1.52;;
10387;SDS011;5240;51.128;4.566;2023-01-08T02:16:32;7.63;;;1.67;;
10387;SDS011;5240;51.128;4.566;2023-01-08T02:19:10;6.22;;;1.50;;
10387;SDS011;5240;51.128;4.566;2023-01-08T02:21:44;2.97;;;1.30;;
10387;SDS011;5240;51.128;4.566;2023-01-08T02:24:27;2.72;;;1.23;;
10387;SDS011;5240;51.128;4.566;2023-01-08T02:27:08;4.55;;;1.67;;
10387;SDS011;5240;51.128;4.566;2023-01-08T02:29:38;2.65;;;1.48;;
10387;SDS011;5240;51.128;4.566;2023-01-08T02:32:06;3.03;;;1.63;;
10387;SDS011;5240;51.128;4.566;2023-01-08T02:34:33;3.60;;;1.38;;
10387;SDS011;5240;51.128;4.566;2023-01-08T02:37:00;3.22;;;1.58;;
10387;SDS011;5240;51.128;4.566;2023-01-08T02:39:30;3.17;;;1.50;;
10387;SDS011;5240;51.128;4.566;2023-01-08T02:42:12;5.38;;;1.80;;
10387;SDS011;5240;51.128;4.566;2023-01-08T02:44:55;6.72;;;2.05;;
10387;SDS011;5240;51.128;4.566;2023-01-08T02:47:28;2.33;;;1.40;;
10387;SDS011;5240;51.128;4.566;2023-01-08T02:50:00;3.85;;;1.67;;
10387;SDS011;5240;51.128;4.566;2023-01-08T02:52:33;6.97;;;2.47;;
10387;SDS011;5240;51.128;4.566;2023-01-08T02:55:05;6.03;;;1.75;;
10387;SDS011;5240;51.128;4.566;2023-01-08T02:57:34;5.72;;;2.17;;
10387;SDS011;5240;51.128;4.566;2023-01-08T03:00:02;6.05;;;1.80;;
10387;SDS011;5240;51.128;4.566;2023-01-08T03:02:30;2.92;;;1.50;;
10387;SDS011;5240;51.128;4.566;2023-01-08T03:05:02;5.95;;;2.20;;
10387;SDS011;5240;51.128;4.566;2023-01-08T03:07:34;2.75;;;1.65;;
10387;SDS011;5240;51.128;4.566;2023-01-08T03:10:01;4.18;;;1.90;;
10387;SDS011;5240;51.128;4.566;2023-01-08T03:12:31;5.93;;;2.35;;
10387;SDS011;5240;51.128;4.566;2023-01-08T03:15:12;4.20;;;2.00;;
10387;SDS011;5240;51.128;4.566;2023-01-08T03:17:45;5.35;;;1.95;;
10387;SDS011;5240;51.128;4.566;2023-01-08T03:20:16;4.72;;;1.95;;
10387;SDS011;5240;51.128;4.566;2023-01-08T03:22:47;4.40;;;1.92;;
10387;SDS011;5240;51.128;4.566;2023-01-08T03:25:17;4.90;;;2.33;;
10387;SDS011;5240;51.128;4.566;2023-01-08T03:27:49;4.80;;;1.85;;
10387;SDS011;5240;51.128;4.566;2023-01-08T03:30:19;4.50;;;1.98;;
10387;SDS011;5240;51.128;4.566;2023-01-08T03:32:49;6.20;;;2.03;;
10387;SDS011;5240;51.128;4.566;2023-01-08T03:35:19;9.23;;;2.15;;
10387;SDS011;5240;51.128;4.566;2023-01-08T03:37:50;3.20;;;1.40;;
10387;SDS011;5240;51.128;4.566;2023-01-08T03:40:22;4.28;;;1.77;;
10387;SDS011;5240;51.128;4.566;2023-01-08T03:42:53;2.42;;;1.50;;
10387;SDS011;5240;51.128;4.566;2023-01-08T03:45:22;2.60;;;1.70;;
10387;SDS011;5240;51.128;4.566;2023-01-08T03:47:51;2.80;;;1.52;;
10387;SDS011;5240;51.128;4.566;2023-01-08T03:50:20;3.80;;;1.70;;
10387;SDS011;5240;51.128;4.566;2023-01-08T03:52:50;2.70;;;1.50;;
10387;SDS011;5240;51.128;4.566;2023-01-08T03:55:17;2.85;;;1.58;;
10387;SDS011;5240;51.128;4.566;2023-01-08T03:57:44;2.65;;;1.50;;
10387;SDS011;5240;51.128;4.566;2023-01-08T04:00:14;3.67;;;1.65;;
10387;SDS011;5240;51.128;4.566;2023-01-08T04:02:41;2.45;;;1.50;;
10387;SDS011;5240;51.128;4.566;2023-01-08T04:05:08;4.50;;;1.50;;
10387;SDS011;5240;51.128;4.566;2023-01-08T04:07:36;3.35;;;1.75;;
10387;SDS011;5240;51.128;4.566;2023-01-08T04:10:03;5.05;;;1.67;;
10387;SDS011;5240;51.128;4.566;2023-01-08T04:12:30;3.40;;;1.58;;
10387;SDS011;5240;51.128;4.566;2023-01-08T04:14:57;5.82;;;1.50;;
10387;SDS011;5240;51.128;4.566;2023-01-08T04:17:26;3.20;;;1.48;;
10387;SDS011;5240;51.128;4.566;2023-01-08T04:19:53;4.28;;;1.60;;
10387;SDS011;5240;51.128;4.566;2023-01-08T04:22:20;2.70;;;1.40;;
10387;SDS011;5240;51.128;4.566;2023-01-08T04:24:47;6.32;;;1.67;;
10387;SDS011;5240;51.128;4.566;2023-01-08T04:27:14;4.47;;;1.50;;
10387;SDS011;5240;51.128;4.566;2023-01-08T04:29:41;6.07;;;1.70;;
10387;SDS011;5240;51.128;4.566;2023-01-08T04:32:08;5.30;;;1.55;;
10387;SDS011;5240;51.128;4.566;2023-01-08T04:34:37;3.97;;;1.50;;
10387;SDS011;5240;51.128;4.566;2023-01-08T04:37:04;6.05;;;1.60;;
10387;SDS011;5240;51.128;4.566;2023-01-08T04:39:31;6.03;;;1.67;;
10387;SDS011;5240;51.128;4.566;2023-01-08T04:41:58;5.53;;;1.73;;
10387;SDS011;5240;51.128;4.566;2023-01-08T04:44:25;5.47;;;1.73;;
10387;SDS011;5240;51.128;4.566;2023-01-08T04:46:52;3.75;;;1.52;;
10387;SDS011;5240;51.128;4.566;2023-01-08T04:49:20;4.50;;;2.10;;
10387;SDS011;5240;51.128;4.566;2023-01-08T04:51:48;6.00;;;1.90;;
10387;SDS011;5240;51.128;4.566;2023-01-08T04:54:15;5.85;;;1.83;;
10387;SDS011;5240;51.128;4.566;2023-01-08T04:56:42;6.40;;;1.90;;
10387;SDS011;5240;51.128;4.566;2023-01-08T04:59:09;3.72;;;1.50;;
10387;SDS011;5240;51.128;4.566;2023-01-08T05:01:36;6.78;;;1.70;;
10387;SDS011;5240;51.128;4.566;2023-01-08T05:04:03;8.20;;;2.03;;
10387;SDS011;5240;51.128;4.566;2023-01-08T05:06:31;7.03;;;2.08;;
10387;SDS011;5240;51.128;4.566;2023-01-08T05:09:00;6.93;;;1.65;;
10387;SDS011;5240;51.128;4.566;2023-01-08T05:11:27;10.48;;;2.65;;
10387;SDS011;5240;51.128;4.566;2023-01-08T05:13:54;10.05;;;2.25;;
10387;SDS011;5240;51.128;4.566;2023-01-08T05:16:21;7.47;;;1.92;;
10387;SDS011;5240;51.128;4.566;2023-01-08T05:18:48;6.72;;;2.05;;
10387;SDS011;5240;51.128;4.566;2023-01-08T05:21:15;7.00;;;1.90;;
10387;SDS011;5240;51.128;4.566;2023-01-08T05:23:43;7.45;;;2.25;;
10387;SDS011;5240;51.128;4.566;2023-01-08T05:26:13;12.00;;;3.17;;
10387;SDS011;5240;51.128;4.566;2023-01-08T05:28:41;9.77;;;2.20;;
10387;SDS011;5240;51.128;4.566;2023-01-08T05:31:08;7.45;;;2.42;;
10387;SDS011;5240;51.128;4.566;2023-01-08T05:33:36;7.50;;;2.22;;
10387;SDS011;5240;51.128;4.566;2023-01-08T05:36:04;11.00;;;2.97;;
10387;SDS011;5240;51.128;4.566;2023-01-08T05:38:32;10.02;;;2.65;;
10387;SDS011;5240;51.128;4.566;2023-01-08T05:40:59;7.22;;;2.22;;
10387;SDS011;5240;51.128;4.566;2023-01-08T05:43:28;10.32;;;2.53;;
10387;SDS011;5240;51.128;4.566;2023-01-08T05:45:56;7.53;;;2.22;;
10387;SDS011;5240;51.128;4.566;2023-01-08T05:48:24;8.25;;;2.10;;
10387;SDS011;5240;51.128;4.566;2023-01-08T05:50:51;7.57;;;2.38;;
10387;SDS011;5240;51.128;4.566;2023-01-08T05:53:18;13.40;;;2.90;;
10387;SDS011;5240;51.128;4.566;2023-01-08T05:55:45;9.77;;;2.33;;
10387;SDS011;5240;51.128;4.566;2023-01-08T05:58:13;11.68;;;2.60;;
10387;SDS011;5240;51.128;4.566;2023-01-08T06:00:44;8.82;;;2.20;;
10387;SDS011;5240;51.128;4.566;2023-01-08T06:03:12;11.40;;;2.35;;
10387;SDS011;5240;51.128;4.566;2023-01-08T06:05:39;10.95;;;2.58;;
10387;SDS011;5240;51.128;4.566;2023-01-08T06:08:06;12.55;;;2.83;;
10387;SDS011;5240;51.128;4.566;2023-01-08T06:10:33;6.72;;;2.10;;
10387;SDS011;5240;51.128;4.566;2023-01-08T06:13:00;10.18;;;2.58;;
10387;SDS011;5240;51.128;4.566;2023-01-08T06:15:27;7.97;;;2.20;;
10387;SDS011;5240;51.128;4.566;2023-01-08T06:17:55;9.07;;;2.05;;
10387;SDS011;5240;51.128;4.566;2023-01-08T06:20:22;16.10;;;2.42;;
10387;SDS011;5240;51.128;4.566;2023-01-08T06:22:49;12.07;;;2.47;;
10387;SDS011;5240;51.128;4.566;2023-01-08T06:25:19;7.53;;;2.10;;
10387;SDS011;5240;51.128;4.566;2023-01-08T06:27:49;10.70;;;2.80;;
10387;SDS011;5240;51.128;4.566;2023-01-08T06:30:16;7.78;;;1.83;;
10387;SDS011;5240;51.128;4.566;2023-01-08T06:32:43;13.85;;;2.20;;
10387;SDS011;5240;51.128;4.566;2023-01-08T06:35:12;8.60;;;2.13;;
10387;SDS011;5240;51.128;4.566;2023-01-08T06:37:39;11.23;;;2.67;;
10387;SDS011;5240;51.128;4.566;2023-01-08T06:40:06;8.60;;;2.35;;
10387;SDS011;5240;51.128;4.566;2023-01-08T06:42:34;10.25;;;2.22;;
10387;SDS011;5240;51.128;4.566;2023-01-08T06:45:01;8.32;;;2.55;;
10387;SDS011;5240;51.128;4.566;2023-01-08T06:47:28;8.32;;;2.58;;
10387;SDS011;5240;51.128;4.566;2023-01-08T06:49:55;13.80;;;3.15;;
10387;SDS011;5240;51.128;4.566;2023-01-08T06:52:24;9.20;;;2.88;;
10387;SDS011;5240;51.128;4.566;2023-01-08T06:54:51;8.73;;;2.65;;
10387;SDS011;5240;51.128;4.566;2023-01-08T06:57:19;17.73;;;3.00;;
10387;SDS011;5240;51.128;4.566;2023-01-08T06:59:46;8.55;;;2.55;;
10387;SDS011;5240;51.128;4.566;2023-01-08T07:02:13;13.38;;;3.08;;
10387;SDS011;5240;51.128;4.566;2023-01-08T07:04:40;9.95;;;3.30;;
10387;SDS011;5240;51.128;4.566;2023-01-08T07:07:08;7.40;;;3.30;;
10387;SDS011;5240;51.128;4.566;2023-01-08T07:09:39;11.05;;;3.75;;
10387;SDS011;5240;51.128;4.566;2023-01-08T07:12:09;9.93;;;3.85;;
10387;SDS011;5240;51.128;4.566;2023-01-08T07:14:37;10.20;;;3.33;;
10387;SDS011;5240;51.128;4.566;2023-01-08T07:17:05;9.07;;;3.50;;
10387;SDS011;5240;51.128;4.566;2023-01-08T07:19:32;10.45;;;2.75;;
10387;SDS011;5240;51.128;4.566;2023-01-08T07:22:00;11.57;;;3.33;;
10387;SDS011;5240;51.128;4.566;2023-01-08T07:24:27;7.00;;;2.58;;
10387;SDS011;5240;51.128;4.566;2023-01-08T07:26:55;10.57;;;2.75;;
10387;SDS011;5240;51.128;4.566;2023-01-08T07:29:22;11.00;;;3.05;;
10387;SDS011;5240;51.128;4.566;2023-01-08T07:31:50;8.10;;;2.40;;
10387;SDS011;5240;51.128;4.566;2023-01-08T07:34:17;10.02;;;2.83;;
10387;SDS011;5240;51.128;4.566;2023-01-08T07:36:44;9.27;;;2.60;;
10387;SDS011;5240;51.128;4.566;2023-01-08T07:39:11;8.25;;;2.58;;
10387;SDS011;5240;51.128;4.566;2023-01-08T07:41:38;8.05;;;2.55;;
10387;SDS011;5240;51.128;4.566;2023-01-08T07:44:06;9.40;;;2.40;;
10387;SDS011;5240;51.128;4.566;2023-01-08T07:46:33;11.23;;;2.42;;
10387;SDS011;5240;51.128;4.566;2023-01-08T07:49:00;9.02;;;2.60;;
10387;SDS011;5240;51.128;4.566;2023-01-08T07:51:27;9.48;;;2.40;;
10387;SDS011;5240;51.128;4.566;2023-01-08T07:53:55;9.95;;;2.33;;
10387;SDS011;5240;51.128;4.566;2023-01-08T07:56:22;10.98;;;2.97;;
10387;SDS011;5240;51.128;4.566;2023-01-08T07:58:50;9.50;;;2.25;;
10387;SDS011;5240;51.128;4.566;2023-01-08T08:01:18;9.27;;;2.58;;
10387;SDS011;5240;51.128;4.566;2023-01-08T08:03:45;9.40;;;2.40;;
10387;SDS011;5240;51.128;4.566;2023-01-08T08:06:12;8.10;;;2.75;;
10387;SDS011;5240;51.128;4.566;2023-01-08T08:08:39;7.95;;;2.08;;
10387;SDS011;5240;51.128;4.566;2023-01-08T08:11:06;9.57;;;2.47;;
10387;SDS011;5240;51.128;4.566;2023-01-08T08:13:33;9.15;;;3.08;;
10387;SDS011;5240;51.128;4.566;2023-01-08T08:16:01;11.40;;;2.38;;
10387;SDS011;5240;51.128;4.566;2023-01-08T08:18:30;12.88;;;3.38;;
10387;SDS011;5240;51.128;4.566;2023-01-08T08:20:57;11.13;;;4.60;;
10387;SDS011;5240;51.128;4.566;2023-01-08T08:23:24;10.45;;;3.20;;
10387;SDS011;5240;51.128;4.566;2023-01-08T08:25:51;11.13;;;4.10;;
10387;SDS011;5240;51.128;4.566;2023-01-08T08:28:18;9.07;;;3.72;;
10387;SDS011;5240;51.128;4.566;2023-01-08T08:30:45;11.40;;;3.03;;
10387;SDS011;5240;51.128;4.566;2023-01-08T08:33:13;11.50;;;5.10;;
10387;SDS011;5240;51.128;4.566;2023-01-08T08:35:46;11.20;;;3.28;;
10387;SDS011;5240;51.128;4.566;2023-01-08T08:38:14;10.27;;;2.50;;
10387;SDS011;5240;51.128;4.566;2023-01-08T08:40:41;11.48;;;3.17;;
10387;SDS011;5240;51.128;4.566;2023-01-08T08:43:08;9.70;;;3.55;;
10387;SDS011;5240;51.128;4.566;2023-01-08T08:45:35;9.55;;;3.55;;
10387;SDS011;5240;51.128;4.566;2023-01-08T08:48:04;7.63;;;2.50;;
10387;SDS011;5240;51.128;4.566;2023-01-08T08:50:32;8.35;;;2.72;;
10387;SDS011;5240;51.128;4.566;2023-01-08T08:53:01;8.40;;;3.05;;
10387;SDS011;5240;51.128;4.566;2023-01-08T08:55:29;12.07;;;6.30;;
10387;SDS011;5240;51.128;4.566;2023-01-08T08:58:01;12.82;;;5.28;;
10387;SDS011;5240;51.128;4.566;2023-01-08T09:00:29;8.88;;;3.80;;
10387;SDS011;5240;51.128;4.566;2023-01-08T09:02:56;12.40;;;5.07;;
10387;SDS011;5240;51.128;4.566;2023-01-08T09:05:23;10.68;;;5.72;;
10387;SDS011;5240;51.128;4.566;2023-01-08T09:07:50;8.52;;;3.65;;
10387;SDS011;5240;51.128;4.566;2023-01-08T09:10:20;10.63;;;3.10;;
10387;SDS011;5240;51.128;4.566;2023-01-08T09:12:47;13.75;;;4.88;;
10387;SDS011;5240;51.128;4.566;2023-01-08T09:15:14;10.70;;;3.28;;
10387;SDS011;5240;51.128;4.566;2023-01-08T09:17:41;11.90;;;4.82;;
10387;SDS011;5240;51.128;4.566;2023-01-08T09:20:08;14.77;;;5.03;;
10387;SDS011;5240;51.128;4.566;2023-01-08T09:22:36;9.98;;;3.42;;
10387;SDS011;5240;51.128;4.566;2023-01-08T09:25:03;10.00;;;3.78;;
10387;SDS011;5240;51.128;4.566;2023-01-08T09:27:32;12.10;;;2.78;;
10387;SDS011;5240;51.128;4.566;2023-01-08T09:29:59;8.13;;;3.00;;
10387;SDS011;5240;51.128;4.566;2023-01-08T09:32:26;7.72;;;3.10;;
10387;SDS011;5240;51.128;4.566;2023-01-08T09:34:54;8.90;;;3.58;;
10387;SDS011;5240;51.128;4.566;2023-01-08T09:37:21;6.07;;;2.67;;
10387;SDS011;5240;51.128;4.566;2023-01-08T09:39:48;5.70;;;2.63;;
10387;SDS011;5240;51.128;4.566;2023-01-08T09:42:16;9.50;;;2.47;;
10387;SDS011;5240;51.128;4.566;2023-01-08T09:44:48;8.00;;;2.45;;
10387;SDS011;5240;51.128;4.566;2023-01-08T09:47:20;5.10;;;2.90;;
10387;SDS011;5240;51.128;4.566;2023-01-08T09:49:50;6.55;;;2.30;;
10387;SDS011;5240;51.128;4.566;2023-01-08T09:52:20;3.97;;;2.03;;
10387;SDS011;5240;51.128;4.566;2023-01-08T09:54:47;6.25;;;2.08;;
10387;SDS011;5240;51.128;4.566;2023-01-08T09:57:16;5.63;;;2.17;;
10387;SDS011;5240;51.128;4.566;2023-01-08T09:59:45;6.63;;;2.28;;
10387;SDS011;5240;51.128;4.566;2023-01-08T10:02:15;6.00;;;1.85;;
10387;SDS011;5240;51.128;4.566;2023-01-08T10:04:44;2.63;;;1.80;;
10387;SDS011;5240;51.128;4.566;2023-01-08T10:07:16;3.97;;;1.90;;
10387;SDS011;5240;51.128;4.566;2023-01-08T10:09:46;3.95;;;1.77;;
10387;SDS011;5240;51.128;4.566;2023-01-08T10:12:15;3.33;;;1.60;;
10387;SDS011;5240;51.128;4.566;2023-01-08T10:14:46;2.17;;;1.40;;
10387;SDS011;5240;51.128;4.566;2023-01-08T10:17:19;2.90;;;1.33;;
10387;SDS011;5240;51.128;4.566;2023-01-08T10:19:52;3.05;;;1.30;;
10387;SDS011;5240;51.128;4.566;2023-01-08T10:22:20;2.85;;;1.55;;
10387;SDS011;5240;51.128;4.566;2023-01-08T10:24:50;4.18;;;1.23;;
10387;SDS011;5240;51.128;4.566;2023-01-08T10:27:18;1.40;;;1.08;;
10387;SDS011;5240;51.128;4.566;2023-01-08T10:29:46;2.38;;;1.20;;
10387;SDS011;5240;51.128;4.566;2023-01-08T10:32:17;1.77;;;1.02;;
10387;SDS011;5240;51.128;4.566;2023-01-08T10:34:48;5.07;;;1.30;;
10387;SDS011;5240;51.128;4.566;2023-01-08T10:37:21;3.15;;;1.10;;
10387;SDS011;5240;51.128;4.566;2023-01-08T10:39:51;2.67;;;1.05;;
10387;SDS011;5240;51.128;4.566;2023-01-08T10:42:21;3.08;;;1.13;;
10387;SDS011;5240;51.128;4.566;2023-01-08T10:44:54;1.52;;;1.20;;
10387;SDS011;5240;51.128;4.566;2023-01-08T10:47:29;2.03;;;1.10;;
10387;SDS011;5240;51.128;4.566;2023-01-08T10:49:59;4.35;;;1.40;;
10387;SDS011;5240;51.128;4.566;2023-01-08T10:52:29;1.05;;;0.88;;
10387;SDS011;5240;51.128;4.566;2023-01-08T10:55:09;5.30;;;1.42;;
10387;SDS011;5240;51.128;4.566;2023-01-08T10:57:38;3.75;;;1.40;;
10387;SDS011;5240;51.128;4.566;2023-01-08T11:02:50;3.88;;;1.20;;
10387;SDS011;5240;51.128;4.566;2023-01-08T11:05:27;2.55;;;1.05;;
10387;SDS011;5240;51.128;4.566;2023-01-08T11:07:56;3.10;;;1.58;;
10387;SDS011;5240;51.128;4.566;2023-01-08T11:10:25;5.70;;;1.55;;
10387;SDS011;5240;51.128;4.566;2023-01-08T11:12:54;4.22;;;1.40;;
10387;SDS011;5240;51.128;4.566;2023-01-08T11:15:26;3.33;;;1.38;;
10387;SDS011;5240;51.128;4.566;2023-01-08T11:18:03;3.15;;;1.50;;
10387;SDS011;5240;51.128;4.566;2023-01-08T11:20:33;6.43;;;1.65;;
10387;SDS011;5240;51.128;4.566;2023-01-08T11:23:04;4.78;;;1.35;;
10387;SDS011;5240;51.128;4.566;2023-01-08T11:25:32;5.55;;;1.60;;
10387;SDS011;5240;51.128;4.566;2023-01-08T11:28:00;6.05;;;1.55;;
10387;SDS011;5240;51.128;4.566;2023-01-08T11:30:29;4.50;;;1.40;;
10387;SDS011;5240;51.128;4.566;2023-01-08T11:33:04;5.72;;;1.77;;
10387;SDS011;5240;51.128;4.566;2023-01-08T11:35:35;3.95;;;1.48;;
10387;SDS011;5240;51.128;4.566;2023-01-08T11:38:05;4.63;;;1.70;;
10387;SDS011;5240;51.128;4.566;2023-01-08T11:40:36;6.32;;;1.40;;
10387;SDS011;5240;51.128;4.566;2023-01-08T11:43:11;3.90;;;1.48;;
10387;SDS011;5240;51.128;4.566;2023-01-08T11:46:02;4.90;;;1.65;;
10387;SDS011;5240;51.128;4.566;2023-01-08T11:48:52;5.70;;;1.70;;
10387;SDS011;5240;51.128;4.566;2023-01-08T11:51:40;4.30;;;1.60;;
10387;SDS011;5240;51.128;4.566;2023-01-08T11:54:30;6.53;;;1.73;;
10387;SDS011;5240;51.128;4.566;2023-01-08T11:57:11;5.75;;;1.55;;
10387;SDS011;5240;51.128;4.566;2023-01-08T12:00:01;6.15;;;1.85;;
10387;SDS011;5240;51.128;4.566;2023-01-08T12:02:46;4.53;;;1.70;;
10387;SDS011;5240;51.128;4.566;2023-01-08T12:05:30;4.78;;;1.70;;
10387;SDS011;5240;51.128;4.566;2023-01-08T12:08:03;5.88;;;1.75;;
10387;SDS011;5240;51.128;4.566;2023-01-08T12:10:38;6.63;;;2.17;;
10387;SDS011;5240;51.128;4.566;2023-01-08T12:13:18;3.55;;;1.50;;
10387;SDS011;5240;51.128;4.566;2023-01-08T12:15:59;8.35;;;2.20;;
10387;SDS011;5240;51.128;4.566;2023-01-08T12:18:35;5.28;;;1.90;;
10387;SDS011;5240;51.128;4.566;2023-01-08T12:21:16;5.78;;;2.17;;
10387;SDS011;5240;51.128;4.566;2023-01-08T12:26:48;5.60;;;1.70;;
10387;SDS011;5240;51.128;4.566;2023-01-08T12:29:32;5.55;;;2.20;;
10387;SDS011;5240;51.128;4.566;2023-01-08T12:32:25;7.60;;;1.83;;
10387;SDS011;5240;51.128;4.566;2023-01-08T12:35:01;7.20;;;2.15;;
10387;SDS011;5240;51.128;4.566;2023-01-08T12:37:38;5.43;;;1.73;;
10387;SDS011;5240;51.128;4.566;2023-01-08T12:40:12;5.82;;;1.92;;
10387;SDS011;5240;51.128;4.566;2023-01-08T12:42:42;5.07;;;1.90;;
10387;SDS011;5240;51.128;4.566;2023-01-08T12:45:16;6.20;;;2.17;;
10387;SDS011;5240;51.128;4.566;2023-01-08T12:47:47;7.72;;;2.58;;
10387;SDS011;5240;51.128;4.566;2023-01-08T12:50:30;6.45;;;1.88;;
10387;SDS011;5240;51.128;4.566;2023-01-08T12:53:05;6.05;;;1.80;;
10387;SDS011;5240;51.128;4.566;2023-01-08T12:55:44;7.65;;;2.25;;
10387;SDS011;5240;51.128;4.566;2023-01-08T12:58:27;4.20;;;1.60;;
10387;SDS011;5240;51.128;4.566;2023-01-08T13:01:03;7.07;;;1.75;;
10387;SDS011;5240;51.128;4.566;2023-01-08T13:03:36;5.47;;;1.83;;
10387;SDS011;5240;51.128;4.566;2023-01-08T13:06:08;3.70;;;1.90;;
10387;SDS011;5240;51.128;4.566;2023-01-08T13:08:39;5.00;;;1.65;;
10387;SDS011;5240;51.128;4.566;2023-01-08T13:11:07;4.40;;;1.80;;
10387;SDS011;5240;51.128;4.566;2023-01-08T13:13:35;7.97;;;2.03;;
10387;SDS011;5240;51.128;4.566;2023-01-08T13:16:16;6.22;;;2.17;;
10387;SDS011;5240;51.128;4.566;2023-01-08T13:18:55;4.70;;;1.48;;
10387;SDS011;5240;51.128;4.566;2023-01-08T13:21:31;7.13;;;2.22;;
10387;SDS011;5240;51.128;4.566;2023-01-08T13:26:52;4.00;;;1.77;;
10387;SDS011;5240;51.128;4.566;2023-01-08T13:29:35;11.95;;;1.95;;
10387;SDS011;5240;51.128;4.566;2023-01-08T13:32:20;8.40;;;1.80;;
10387;SDS011;5240;51.128;4.566;2023-01-08T13:34:59;4.78;;;1.55;;
10387;SDS011;5240;51.128;4.566;2023-01-08T13:37:28;9.30;;;2.17;;
10387;SDS011;5240;51.128;4.566;2023-01-08T13:39:57;5.53;;;2.00;;
10387;SDS011;5240;51.128;4.566;2023-01-08T13:42:24;5.38;;;1.70;;
10387;SDS011;5240;51.128;4.566;2023-01-08T13:44:56;4.43;;;1.80;;
10387;SDS011;5240;51.128;4.566;2023-01-08T13:47:26;3.45;;;1.58;;
10387;SDS011;5240;51.128;4.566;2023-01-08T13:49:57;6.90;;;1.60;;
10387;SDS011;5240;51.128;4.566;2023-01-08T13:52:29;6.32;;;1.50;;
10387;SDS011;5240;51.128;4.566;2023-01-08T13:55:00;4.05;;;1.83;;
10387;SDS011;5240;51.128;4.566;2023-01-08T13:57:31;5.32;;;1.83;;
10387;SDS011;5240;51.128;4.566;2023-01-08T14:00:03;3.42;;;1.65;;
10387;SDS011;5240;51.128;4.566;2023-01-08T14:02:40;6.40;;;1.95;;
10387;SDS011;5240;51.128;4.566;2023-01-08T14:05:18;8.32;;;3.05;;
10387;SDS011;5240;51.128;4.566;2023-01-08T14:07:47;3.85;;;1.60;;
10387;SDS011;5240;51.128;4.566;2023-01-08T14:10:18;4.88;;;1.50;;
10387;SDS011;5240;51.128;4.566;2023-01-08T14:12:46;5.40;;;1.60;;
10387;SDS011;5240;51.128;4.566;2023-01-08T14:15:16;6.90;;;2.10;;
10387;SDS011;5240;51.128;4.566;2023-01-08T14:17:47;5.15;;;1.75;;
10387;SDS011;5240;51.128;4.566;2023-01-08T14:20:19;4.85;;;1.90;;
10387;SDS011;5240;51.128;4.566;2023-01-08T14:22:55;4.05;;;1.70;;
10387;SDS011;5240;51.128;4.566;2023-01-08T14:25:24;10.73;;;2.10;;
10387;SDS011;5240;51.128;4.566;2023-01-08T14:27:55;4.80;;;1.80;;
10387;SDS011;5240;51.128;4.566;2023-01-08T14:30:24;7.82;;;1.90;;
10387;SDS011;5240;51.128;4.566;2023-01-08T14:32:51;4.75;;;1.48;;
10387;SDS011;5240;51.128;4.566;2023-01-08T14:35:22;7.72;;;2.00;;
10387;SDS011;5240;51.128;4.566;2023-01-08T14:37:58;2.78;;;1.65;;
10387;SDS011;5240;51.128;4.566;2023-01-08T14:40:28;3.08;;;1.60;;
10387;SDS011;5240;51.128;4.566;2023-01-08T14:42:58;5.43;;;1.60;;
10387;SDS011;5240;51.128;4.566;2023-01-08T14:45:32;3.97;;;1.60;;
10387;SDS011;5240;51.128;4.566;2023-01-08T14:48:00;5.47;;;1.73;;
10387;SDS011;5240;51.128;4.566;2023-01-08T14:50:36;6.30;;;1.80;;
10387;SDS011;5240;51.128;4.566;2023-01-08T14:53:06;3.25;;;1.35;;
10387;SDS011;5240;51.128;4.566;2023-01-08T14:55:42;4.63;;;1.67;;
10387;SDS011;5240;51.128;4.566;2023-01-08T14:58:13;5.38;;;2.00;;
10387;SDS011;5240;51.128;4.566;2023-01-08T15:00:44;5.43;;;2.15;;
10387;SDS011;5240;51.128;4.566;2023-01-08T15:03:30;5.38;;;1.70;;
10387;SDS011;5240;51.128;4.566;2023-01-08T15:05:59;3.63;;;1.77;;
10387;SDS011;5240;51.128;4.566;2023-01-08T15:08:30;4.97;;;1.80;;
10387;SDS011;5240;51.128;4.566;2023-01-08T15:11:02;5.07;;;1.77;;
10387;SDS011;5240;51.128;4.566;2023-01-08T15:13:31;3.00;;;1.50;;
10387;SDS011;5240;51.128;4.566;2023-01-08T15:16:01;4.97;;;1.52;;
10387;SDS011;5240;51.128;4.566;2023-01-08T15:18:34;4.68;;;1.90;;
10387;SDS011;5240;51.128;4.566;2023-01-08T15:21:07;4.03;;;1.73;;
10387;SDS011;5240;51.128;4.566;2023-01-08T15:23:37;5.15;;;1.60;;
10387;SDS011;5240;51.128;4.566;2023-01-08T15:26:11;6.00;;;1.73;;